Time;durP1;ratioP1;P1;durP2;ratioP2;P2;SDS_P1;SDS_P2;PMS_P1;PMS_P2;Temp;Humidity;BMP_temperature;BMP_pressure;BME280_temperature;BME280_humidity;BME280_pressure;Samples;Min_cycle;Max_cycle;Signal;HPM_P1;HPM_P2
2022/01/28 00:00:13;;;;;;;4.65;1.30;;;30.60;85.90;;;;;;5073637;28;20370;-86
2022/01/28 00:05:27;;;;;;;4.32;1.27;;;30.80;87.90;;;;;;5073311;28;20453;-85
2022/01/28 00:07:55;;;;;;;5.65;1.30;;;30.80;86.00;;;;;;5073009;28;20370;-87
2022/01/28 00:10:25;;;;;;;3.00;1.15;;;31.10;83.10;;;;;;5072884;28;20382;-85
2022/01/28 00:40:12;;;;;;;4.25;1.23;;;31.30;76.30;;;;;;5073893;28;20404;-82
2022/01/28 00:42:39;;;;;;;4.35;1.10;;;31.00;76.00;;;;;;5072286;28;20472;-81
2022/01/28 00:45:07;;;;;;;3.22;1.10;;;30.70;76.60;;;;;;5072285;28;20841;-81
2022/01/28 00:47:34;;;;;;;4.35;1.25;;;30.30;79.00;;;;;;5072610;28;20465;-82
2022/01/28 00:50:01;;;;;;;3.53;1.27;;;30.00;78.70;;;;;;5072652;28;20711;-80
2022/01/28 00:52:28;;;;;;;6.18;1.30;;;29.90;82.00;;;;;;5072937;28;20380;-82
2022/01/28 00:54:54;;;;;;;5.03;1.35;;;30.20;82.20;;;;;;5071982;28;20378;-84
2022/01/28 00:57:21;;;;;;;4.22;1.20;;;30.20;81.30;;;;;;5072301;28;20749;-83
2022/01/28 00:59:48;;;;;;;3.22;1.20;;;30.50;84.10;;;;;;5072247;28;20939;-88
2022/01/28 01:02:15;;;;;;;5.28;1.08;;;31.00;81.40;;;;;;5072241;28;20431;-85
2022/01/28 01:04:42;;;;;;;3.13;1.13;;;31.50;78.70;;;;;;5072046;28;20402;-81
2022/01/28 01:07:13;;;;;;;3.75;1.33;;;31.70;76.30;;;;;;5071886;28;20380;-82
2022/01/28 01:09:40;;;;;;;4.93;1.38;;;31.60;75.90;;;;;;5072477;28;20389;-80
2022/01/28 01:12:07;;;;;;;3.92;1.10;;;31.10;77.60;;;;;;5072180;28;20375;-80
2022/01/28 01:14:34;;;;;;;6.45;1.10;;;30.90;79.60;;;;;;5072195;28;20460;-80
2022/01/28 01:19:30;;;;;;;3.97;1.00;;;31.00;78.10;;;;;;5071985;28;20448;-85
2022/01/28 01:21:59;;;;;;;3.53;1.20;;;31.40;75.10;;;;;;5071984;28;20366;-81
2022/01/28 01:24:34;;;;;;;2.88;1.15;;;31.00;75.20;;;;;;5072033;28;20403;-81
2022/01/28 01:27:01;;;;;;;3.10;1.00;;;31.10;79.20;;;;;;5072330;28;20370;-83
2022/01/28 01:29:28;;;;;;;10.40;2.10;;;31.90;77.50;;;;;;5071824;28;20378;-81
2022/01/28 01:32:04;;;;;;;4.20;1.10;;;32.30;74.10;;;;;;5072293;28;20374;-83
2022/01/28 01:34:31;;;;;;;4.25;1.20;;;32.10;72.70;;;;;;5071794;28;20403;-83
2022/01/28 01:36:58;;;;;;;3.28;1.20;;;31.50;72.90;;;;;;5072041;28;20374;-83
2022/01/28 01:39:30;;;;;;;3.70;1.90;;;31.70;72.30;;;;;;5071473;28;20452;-83
2022/01/28 01:42:09;;;;;;;3.47;1.40;;;32.00;73.10;;;;;;5071649;28;20405;-81
2022/01/28 01:52:53;;;;;;;3.13;1.20;;;33.20;69.40;;;;;;5076347;28;20408;-84
2022/01/28 01:55:20;;;;;;;2.53;1.00;;;33.20;68.40;;;;;;5075628;28;20470;-81
2022/01/28 01:57:48;;;;;;;3.80;1.23;;;33.50;67.40;;;;;;5075711;28;20377;-86
2022/01/28 02:00:17;;;;;;;2.88;1.13;;;34.20;64.30;;;;;;5075665;28;20385;-82
2022/01/28 02:02:44;;;;;;;2.85;1.40;;;34.80;63.20;;;;;;5075624;28;20457;-82
2022/01/28 02:05:11;;;;;;;4.32;1.40;;;34.90;63.10;;;;;;5075419;28;20412;-82
2022/01/28 02:07:39;;;;;;;3.43;1.27;;;34.40;63.70;;;;;;5075336;28;20457;-82
2022/01/28 02:10:07;;;;;;;3.95;1.40;;;34.00;63.70;;;;;;5075413;28;20919;-84
2022/01/28 02:12:45;;;;;;;2.90;1.40;;;34.30;65.50;;;;;;5057519;28;20381;-83
2022/01/28 02:15:12;;;;;;;3.17;1.30;;;35.40;61.70;;;;;;5075585;28;20453;-77
2022/01/28 02:17:40;;;;;;;3.20;1.30;;;36.30;60.50;;;;;;5075407;28;20372;-83
2022/01/28 02:20:11;;;;;;;3.67;1.20;;;36.80;58.90;;;;;;5075549;28;20407;-82
2022/01/28 02:22:38;;;;;;;4.85;1.30;;;37.50;55.10;;;;;;5075231;28;20441;-82
2022/01/28 02:25:05;;;;;;;3.67;1.30;;;37.90;54.40;;;;;;5075288;28;20440;-81
2022/01/28 02:27:32;;;;;;;2.47;1.30;;;37.00;54.50;;;;;;5075431;28;20703;-85
2022/01/28 02:29:59;;;;;;;3.70;1.48;;;36.00;56.00;;;;;;5075107;28;20370;-83
2022/01/28 02:32:26;;;;;;;3.13;1.20;;;36.40;57.60;;;;;;5074949;28;20366;-80
2022/01/28 02:34:53;;;;;;;3.95;1.30;;;36.90;55.00;;;;;;5075429;28;20380;-80
2022/01/28 02:37:20;;;;;;;4.70;1.50;;;37.00;54.40;;;;;;5056808;28;20462;-82
2022/01/28 02:39:47;;;;;;;4.38;1.40;;;36.20;54.80;;;;;;5074299;28;20783;-82
2022/01/28 02:42:26;;;;;;;3.67;1.40;;;36.90;54.20;;;;;;5074873;28;20473;-84
2022/01/28 02:44:54;;;;;;;2.25;1.45;;;37.80;52.00;;;;;;5076899;28;20489;-85
2022/01/28 02:47:35;;;;;;;4.07;1.40;;;37.70;52.80;;;;;;5076369;28;20366;-84
2022/01/28 02:50:03;;;;;;;2.65;1.30;;;36.70;53.90;;;;;;5075022;28;20378;-84
2022/01/28 02:52:50;;;;;;;3.70;1.47;;;35.70;55.50;;;;;;5075232;28;20394;-81
2022/01/28 02:55:17;;;;;;;4.47;1.55;;;34.20;59.20;;;;;;5075006;28;20378;-80
2022/01/28 02:57:52;;;;;;;3.90;1.67;;;33.50;61.00;;;;;;5073610;28;20558;-82
2022/01/28 03:00:19;;;;;;;2.42;1.38;;;33.70;60.80;;;;;;5074794;28;20887;-82
2022/01/28 03:02:46;;;;;;;3.43;1.50;;;34.60;61.10;;;;;;5074561;28;20698;-82
2022/01/28 03:08:13;;;;;;;3.00;1.40;;;36.50;57.00;;;;;;5065985;28;20382;-81
2022/01/28 03:10:45;;;;;;;4.63;1.40;;;36.40;54.40;;;;;;5074484;28;20465;-84
2022/01/28 03:15:41;;;;;;;4.00;1.30;;;35.90;57.00;;;;;;5074568;28;20366;-83
2022/01/28 03:18:16;;;;;;;3.90;1.30;;;36.80;55.60;;;;;;5074266;28;20374;-81
2022/01/28 03:20:57;;;;;;;3.90;1.52;;;36.90;55.60;;;;;;5074732;28;20374;-82
2022/01/28 03:23:24;;;;;;;3.25;1.67;;;36.40;56.10;;;;;;5074356;28;20366;-81
2022/01/28 03:25:50;;;;;;;2.10;1.40;;;36.10;55.70;;;;;;5074140;28;20398;-81
2022/01/28 03:28:20;;;;;;;3.58;1.73;;;35.70;56.80;;;;;;5074156;28;20416;-82
2022/01/28 03:30:47;;;;;;;3.30;1.50;;;35.70;57.60;;;;;;5074005;28;20383;-83
2022/01/28 03:33:14;;;;;;;2.20;1.45;;;36.70;57.40;;;;;;5073953;28;20446;-82
2022/01/28 03:35:41;;;;;;;3.85;1.40;;;38.00;54.60;;;;;;5074270;28;20375;-84
2022/01/28 03:38:12;;;;;;;3.80;1.40;;;38.70;52.10;;;;;;5056359;28;20718;-83
2022/01/28 03:40:41;;;;;;;2.75;1.60;;;38.10;53.40;;;;;;5073659;28;20387;-83
2022/01/28 03:43:09;;;;;;;3.30;1.63;;;38.60;52.70;;;;;;5073834;28;20435;-80
2022/01/28 03:45:36;;;;;;;5.38;1.75;;;38.30;52.10;;;;;;5073836;28;20448;-83
2022/01/28 03:48:03;;;;;;;3.58;1.40;;;37.90;52.40;;;;;;5073749;28;20453;-82
2022/01/28 03:50:34;;;;;;;2.80;1.60;;;38.20;52.20;;;;;;5073673;28;20373;-81
2022/01/28 03:53:06;;;;;;;4.22;1.60;;;38.40;51.70;;;;;;5074362;28;20361;-83
2022/01/28 03:55:36;;;;;;;2.88;1.60;;;37.80;52.40;;;;;;5073500;28;20358;-83
2022/01/28 03:58:04;;;;;;;2.55;1.48;;;38.40;53.10;;;;;;5073810;28;20358;-82
2022/01/28 04:00:32;;;;;;;3.90;1.60;;;38.30;51.20;;;;;;5073742;28;20371;-85
2022/01/28 04:03:10;;;;;;;3.47;1.55;;;37.50;51.80;;;;;;5076336;28;20366;-87
2022/01/28 04:13:55;;;;;;;3.75;1.60;;;37.00;52.90;;;;;;5074512;28;20446;-83
2022/01/28 04:18:49;;;;;;;2.78;1.65;;;36.20;54.10;;;;;;5077455;28;20705;-85
2022/01/28 04:21:19;;;;;;;3.05;1.42;;;36.00;56.40;;;;;;5076974;28;20427;-79
2022/01/28 04:23:46;;;;;;;2.07;1.40;;;36.40;55.50;;;;;;5074090;28;20366;-84
2022/01/28 04:26:13;;;;;;;2.33;1.60;;;37.10;54.60;;;;;;5073291;28;20408;-84
2022/01/28 04:28:40;;;;;;;3.50;1.60;;;38.20;53.80;;;;;;5073590;28;20387;-84
2022/01/28 04:31:07;;;;;;;2.95;1.40;;;38.90;52.30;;;;;;5073435;28;20451;-85
2022/01/28 04:33:34;;;;;;;2.38;1.38;;;39.20;51.90;;;;;;5073620;28;20448;-84
2022/01/28 04:36:01;;;;;;;2.05;1.30;;;40.10;50.50;;;;;;5073775;28;20395;-86
2022/01/28 04:38:47;;;;;;;3.28;1.50;;;40.90;49.60;;;;;;5072536;28;20462;-86
2022/01/28 04:41:23;;;;;;;2.78;1.23;;;41.00;50.00;;;;;;5072845;28;20480;-82
2022/01/28 04:43:58;;;;;;;2.55;1.40;;;42.10;48.30;;;;;;5072367;28;20382;-83
2022/01/28 04:46:50;;;;;;;2.33;1.27;;;42.60;46.30;;;;;;5072369;28;20386;-84
2022/01/28 04:49:26;;;;;;;3.45;1.40;;;41.80;46.30;;;;;;5071686;28;21285;-83
2022/01/28 04:52:14;;;;;;;4.28;1.55;;;40.00;48.80;;;;;;5072378;28;20370;-84
2022/01/28 05:11:06;;;;;;;4.20;1.60;;;40.70;48.80;;;;;;5072673;28;20419;-85
2022/01/28 05:13:38;;;;;;;3.85;1.50;;;40.30;48.70;;;;;;5071577;28;20436;-84
2022/01/28 05:26:40;;;;;;;4.67;1.53;;;39.20;50.00;;;;;;5072024;28;20499;-85
2022/01/28 05:29:07;;;;;;;2.70;1.40;;;38.90;51.70;;;;;;5072044;28;20366;-85
2022/01/28 05:31:34;;;;;;;10.88;6.57;;;38.60;51.00;;;;;;5072287;28;20408;-85
2022/01/28 05:34:01;;;;;;;18.50;10.80;;;37.40;53.20;;;;;;5072304;28;20415;-88
2022/01/28 05:36:29;;;;;;;3.90;1.95;;;36.30;54.80;;;;;;5071923;28;20848;-85
2022/01/28 05:38:56;;;;;;;4.03;1.50;;;35.50;56.60;;;;;;5054132;28;20401;-85
2022/01/28 05:41:23;;;;;;;3.65;1.67;;;34.90;58.20;;;;;;5071555;28;20386;-86
2022/01/28 05:43:50;;;;;;;4.15;1.58;;;34.60;58.40;;;;;;5071405;28;20443;-86
2022/01/28 05:46:20;;;;;;;5.03;1.48;;;34.60;59.00;;;;;;5071380;28;20434;-86
2022/01/28 05:48:47;;;;;;;2.92;1.50;;;34.50;59.20;;;;;;5071659;28;20374;-84
2022/01/28 05:51:14;;;;;;;6.53;1.83;;;34.30;60.10;;;;;;5071344;28;20389;-84
2022/01/28 05:53:41;;;;;;;6.63;1.60;;;34.00;60.90;;;;;;5071498;28;20377;-85
2022/01/28 05:56:08;;;;;;;4.33;1.70;;;33.60;60.70;;;;;;5071267;28;20382;-85
2022/01/28 05:58:35;;;;;;;7.10;1.60;;;33.80;62.20;;;;;;5071835;28;20923;-84
2022/01/28 06:01:02;;;;;;;4.93;1.60;;;34.00;61.40;;;;;;5071606;28;20858;-85
2022/01/28 06:03:29;;;;;;;4.03;1.45;;;34.30;60.90;;;;;;5071715;28;20370;-85
2022/01/28 06:05:56;;;;;;;3.50;1.50;;;35.10;60.50;;;;;;5071579;28;20402;-85
2022/01/28 06:08:23;;;;;;;5.60;1.40;;;35.90;58.90;;;;;;5072033;28;20384;-85
2022/01/28 06:10:50;;;;;;;4.03;1.40;;;37.00;56.20;;;;;;5082457;28;20366;-85
2022/01/28 06:13:17;;;;;;;3.83;1.48;;;37.80;54.10;;;;;;5076896;28;20378;-85
2022/01/28 06:15:45;;;;;;;4.65;1.42;;;37.80;53.60;;;;;;5073062;28;20457;-85
2022/01/28 06:18:12;;;;;;;4.30;1.30;;;38.00;54.10;;;;;;5071925;28;20783;-84
2022/01/28 06:20:39;;;;;;;4.07;1.30;;;37.70;55.00;;;;;;5071703;28;20366;-85
2022/01/28 06:23:06;;;;;;;3.20;1.20;;;38.00;53.60;;;;;;5071741;28;20374;-85
2022/01/28 06:25:33;;;;;;;4.97;1.27;;;37.90;54.10;;;;;;5071569;28;20515;-85
2022/01/28 06:28:00;;;;;;;3.50;1.33;;;38.20;53.60;;;;;;5072226;28;20378;-86
2022/01/28 06:30:30;;;;;;;4.45;1.63;;;38.60;51.90;;;;;;5072281;28;20884;-85
2022/01/28 06:32:57;;;;;;;4.20;1.45;;;38.60;51.40;;;;;;5075531;28;20366;-86
2022/01/28 06:35:24;;;;;;;4.22;1.40;;;38.00;53.10;;;;;;5075296;28;20432;-85
2022/01/28 06:37:51;;;;;;;6.68;1.50;;;38.00;53.20;;;;;;5075324;28;20363;-85
2022/01/28 06:40:19;;;;;;;5.50;1.40;;;38.20;53.40;;;;;;5075002;28;20821;-85
2022/01/28 06:42:51;;;;;;;5.93;1.50;;;38.50;52.70;;;;;;5056917;28;20818;-83
2022/01/28 06:45:18;;;;;;;3.60;1.50;;;38.60;51.90;;;;;;5056873;28;20413;-84
2022/01/28 06:47:45;;;;;;;3.40;1.35;;;38.40;52.20;;;;;;5074980;28;20735;-84
2022/01/28 06:50:12;;;;;;;4.38;1.45;;;38.20;52.70;;;;;;5074927;28;20378;-85
2022/01/28 06:52:41;;;;;;;5.63;1.50;;;38.10;52.20;;;;;;5057456;28;20854;-84
2022/01/28 06:55:09;;;;;;;3.92;1.40;;;38.30;52.50;;;;;;5074739;28;20488;-86
2022/01/28 06:57:36;;;;;;;4.57;1.25;;;38.10;52.40;;;;;;5074843;28;20881;-85
2022/01/28 07:00:08;;;;;;;4.73;1.53;;;37.60;53.10;;;;;;5074461;28;20374;-86
2022/01/28 07:02:35;;;;;;;4.07;1.42;;;37.60;53.20;;;;;;5074683;28;20373;-82
2022/01/28 07:05:02;;;;;;;2.67;1.13;;;37.40;53.20;;;;;;5074768;28;20406;-82
2022/01/28 07:07:29;;;;;;;5.03;1.50;;;37.30;53.00;;;;;;5074463;28;20416;-83
2022/01/28 07:09:56;;;;;;;4.43;1.23;;;36.70;53.80;;;;;;5074648;28;20410;-83
2022/01/28 07:12:23;;;;;;;5.50;1.30;;;36.50;54.20;;;;;;5074724;28;20389;-83
2022/01/28 07:14:53;;;;;;;6.38;1.40;;;36.30;55.10;;;;;;5074391;28;20431;-81
2022/01/28 07:17:20;;;;;;;4.30;1.13;;;36.20;55.70;;;;;;5074930;28;20427;-88
2022/01/28 07:19:47;;;;;;;4.60;1.55;;;36.30;55.30;;;;;;5074735;28;20420;-87
2022/01/28 07:22:14;;;;;;;3.27;1.20;;;36.70;53.60;;;;;;5057215;28;20807;-90
2022/01/28 07:24:42;;;;;;;3.65;1.55;;;36.70;53.40;;;;;;5075374;28;20796;-91
2022/01/28 07:27:09;;;;;;;3.58;1.30;;;36.60;53.90;;;;;;5075240;28;20382;-86
2022/01/28 07:29:36;;;;;;;3.63;1.30;;;36.60;53.60;;;;;;5078325;28;20374;-82
2022/01/28 07:32:04;;;;;;;5.18;1.50;;;36.70;52.80;;;;;;5080363;28;20358;-84
2022/01/28 07:34:31;;;;;;;4.43;1.35;;;36.30;53.70;;;;;;5084526;28;20366;-86
2022/01/28 07:36:58;;;;;;;5.03;1.30;;;36.10;54.30;;;;;;5077140;28;20382;-83
2022/01/28 07:39:25;;;;;;;5.35;1.30;;;35.70;54.80;;;;;;5074462;28;20378;-83
2022/01/28 07:41:52;;;;;;;6.03;1.30;;;35.50;55.40;;;;;;5073613;28;20729;-87
2022/01/28 07:44:19;;;;;;;5.18;1.52;;;35.50;55.20;;;;;;5073778;28;20420;-86
2022/01/28 07:46:46;;;;;;;4.05;1.17;;;35.20;55.60;;;;;;5074052;28;20423;-87
2022/01/28 07:49:13;;;;;;;4.18;1.30;;;35.30;55.20;;;;;;5073837;28;20719;-84
2022/01/28 07:51:41;;;;;;;4.93;1.33;;;35.00;55.50;;;;;;5074562;28;20450;-86
2022/01/28 07:54:09;;;;;;;2.90;1.40;;;34.70;56.60;;;;;;5074072;28;20366;-82
2022/01/28 07:56:36;;;;;;;3.65;1.40;;;34.40;57.00;;;;;;5073930;28;20406;-84
2022/01/28 07:59:03;;;;;;;4.20;1.30;;;34.50;57.00;;;;;;5073811;28;20410;-85
2022/01/28 08:01:30;;;;;;;5.20;1.37;;;34.50;56.90;;;;;;5073711;28;20367;-81
2022/01/28 08:03:57;;;;;;;3.60;1.40;;;34.50;56.60;;;;;;5073307;28;20884;-83
2022/01/28 08:06:26;;;;;;;3.75;1.30;;;34.50;57.20;;;;;;5073377;28;20777;-84
2022/01/28 08:08:53;;;;;;;3.05;1.30;;;34.00;57.40;;;;;;5073323;28;20464;-88
2022/01/28 08:11:20;;;;;;;2.85;1.30;;;33.10;58.90;;;;;;5073609;28;20390;-80
2022/01/28 08:13:47;;;;;;;4.82;1.30;;;32.20;61.80;;;;;;5073945;28;20461;-86
2022/01/28 08:16:14;;;;;;;4.57;1.50;;;31.50;63.30;;;;;;5075930;28;20421;-81
2022/01/28 08:18:41;;;;;;;6.18;1.70;;;30.80;65.30;;;;;;5073242;28;20427;-81
2022/01/28 08:21:08;;;;;;;4.78;1.48;;;30.50;67.10;;;;;;5077844;28;20382;-85
2022/01/28 08:23:36;;;;;;;4.90;1.50;;;30.50;67.40;;;;;;5073022;28;20884;-86
2022/01/28 08:26:03;;;;;;;4.72;1.33;;;30.50;67.60;;;;;;5072901;28;20402;-89
2022/01/28 08:28:30;;;;;;;4.45;1.40;;;30.30;68.10;;;;;;5073422;28;20370;-84
2022/01/28 08:30:57;;;;;;;14.67;2.53;;;30.00;69.50;;;;;;5072832;28;20379;-87
2022/01/28 08:33:24;;;;;;;6.15;1.40;;;29.50;70.60;;;;;;5076412;28;20390;-79
2022/01/28 08:35:53;;;;;;;10.27;1.73;;;29.30;72.30;;;;;;5072957;28;20893;-80
2022/01/28 08:38:31;;;;;;;4.97;1.48;;;29.00;73.10;;;;;;5072933;28;20745;-82
2022/01/28 08:40:59;;;;;;;6.35;1.50;;;28.90;73.30;;;;;;5072970;28;20428;-85
2022/01/28 08:43:27;;;;;;;7.57;1.60;;;28.70;74.70;;;;;;5072914;28;20858;-89
2022/01/28 08:45:54;;;;;;;6.65;1.50;;;28.50;75.40;;;;;;5073573;28;20489;-88
2022/01/28 08:48:21;;;;;;;6.38;1.85;;;28.30;76.10;;;;;;5072885;28;20374;-84
2022/01/28 08:50:48;;;;;;;6.53;1.60;;;28.10;77.60;;;;;;5073995;28;20366;-91
2022/01/28 08:53:15;;;;;;;6.72;1.60;;;27.80;79.60;;;;;;5072776;28;20370;-82
2022/01/28 08:55:42;;;;;;;6.68;1.73;;;27.70;80.70;;;;;;5073159;28;20385;-81
2022/01/28 08:58:10;;;;;;;3.67;1.38;;;27.50;82.10;;;;;;5073619;28;20367;-85
2022/01/28 09:00:38;;;;;;;7.38;1.60;;;27.50;83.20;;;;;;5072914;28;20405;-81
2022/01/28 09:03:05;;;;;;;4.43;1.40;;;27.40;84.50;;;;;;5072929;28;20374;-80
2022/01/28 09:05:33;;;;;;;6.67;1.57;;;27.30;86.00;;;;;;5072408;28;20440;-84
2022/01/28 09:08:06;;;;;;;5.05;1.50;;;27.20;88.10;;;;;;5073268;28;20405;-86
2022/01/28 09:10:33;;;;;;;5.03;1.40;;;27.10;89.70;;;;;;5072944;28;20785;-92
2022/01/28 09:15:36;;;;;;;6.50;1.60;;;27.00;90.70;;;;;;5073021;28;20390;-82
2022/01/28 09:18:04;;;;;;;9.05;1.63;;;26.90;91.00;;;;;;5072898;28;20366;-84
2022/01/28 09:20:33;;;;;;;6.22;1.80;;;26.80;91.70;;;;;;5072844;28;20465;-82
2022/01/28 09:23:01;;;;;;;6.70;1.70;;;26.70;92.20;;;;;;5072297;28;20453;-81
2022/01/28 09:25:28;;;;;;;4.43;1.65;;;26.60;93.00;;;;;;5072283;28;20451;-86
2022/01/28 09:27:55;;;;;;;9.98;1.83;;;26.50;93.70;;;;;;5073001;28;20370;-84
2022/01/28 09:30:23;;;;;;;7.05;1.60;;;26.40;94.20;;;;;;5072734;28;20372;-91
2022/01/28 09:32:53;;;;;;;8.20;2.08;;;26.40;94.90;;;;;;5072984;28;20370;-90
2022/01/28 09:35:20;;;;;;;6.75;1.77;;;26.30;95.50;;;;;;5076238;28;20466;-84
2022/01/28 09:37:47;;;;;;;6.23;1.90;;;26.40;95.70;;;;;;5076040;28;20512;-80
2022/01/28 09:40:15;;;;;;;5.30;1.60;;;26.40;96.20;;;;;;5072648;28;20504;-80
2022/01/28 09:42:45;;;;;;;6.80;1.65;;;26.40;96.40;;;;;;5072599;28;20389;-85
2022/01/28 09:45:16;;;;;;;5.75;1.63;;;26.30;96.50;;;;;;5072687;28;20871;-83
2022/01/28 09:47:46;;;;;;;7.43;2.00;;;26.30;96.90;;;;;;5072397;28;20368;-87
2022/01/28 09:50:14;;;;;;;8.40;1.90;;;26.20;97.30;;;;;;5072598;28;20725;-82
2022/01/28 09:52:43;;;;;;;6.95;1.80;;;26.20;97.70;;;;;;5071992;28;20420;-84
2022/01/28 09:55:12;;;;;;;9.02;2.00;;;26.10;98.00;;;;;;5072009;28;20366;-84
2022/01/28 09:57:39;;;;;;;6.80;2.03;;;26.00;98.20;;;;;;5071886;28;20873;-87
2022/01/28 10:00:08;;;;;;;5.20;1.70;;;25.90;98.90;;;;;;5072441;28;20905;-89
2022/01/28 10:02:53;;;;;;;7.95;1.65;;;25.80;99.10;;;;;;5072350;28;20370;-87
2022/01/28 10:05:29;;;;;;;6.70;1.63;;;25.70;99.60;;;;;;5072668;28;20447;-89
2022/01/28 10:08:07;;;;;;;10.20;1.90;;;25.60;99.90;;;;;;5076064;28;20458;-86
2022/01/28 10:11:04;;;;;;;7.40;1.83;;;25.60;99.90;;;;;;5076093;28;20385;-83
2022/01/28 10:13:48;;;;;;;5.93;1.58;;;25.60;99.90;;;;;;5073865;28;20457;-89
2022/01/28 10:16:19;;;;;;;6.97;1.80;;;25.70;99.90;;;;;;5075360;28;20814;-81
2022/01/28 10:18:56;;;;;;;8.23;1.87;;;25.60;99.90;;;;;;5075284;28;20376;-86
2022/01/28 10:21:28;;;;;;;7.10;1.70;;;25.60;99.90;;;;;;5057580;28;20379;-91
2022/01/28 10:24:03;;;;;;;6.28;1.65;;;25.60;99.90;;;;;;5076054;28;20453;-83
2022/01/28 10:26:48;;;;;;;8.85;1.73;;;25.50;99.90;;;;;;5074968;28;20424;-86
2022/01/28 10:29:16;;;;;;;6.85;1.70;;;25.50;99.90;;;;;;5075458;28;20374;-80
2022/01/28 10:32:04;;;;;;;8.15;1.70;;;25.50;99.90;;;;;;5075057;28;20457;-82
2022/01/28 10:34:36;;;;;;;8.52;1.80;;;25.40;99.90;;;;;;5075228;28;20770;-84
2022/01/28 10:37:12;;;;;;;12.88;1.60;;;25.40;99.90;;;;;;5075138;28;20385;-85
2022/01/28 10:39:41;;;;;;;6.82;1.70;;;25.30;99.90;;;;;;5075560;28;20381;-90
2022/01/28 10:42:08;;;;;;;9.38;1.85;;;25.20;99.90;;;;;;5075749;28;20745;-86
2022/01/28 10:45:00;;;;;;;7.90;1.75;;;25.20;99.90;;;;;;5076782;28;20394;-84
2022/01/28 10:47:47;;;;;;;6.57;1.73;;;25.20;99.90;;;;;;5081518;28;20402;-84
2022/01/28 10:50:40;;;;;;;7.88;1.83;;;25.10;99.90;;;;;;5076383;28;20366;-83
2022/01/28 10:53:16;;;;;;;9.10;1.90;;;25.10;99.90;;;;;;5075558;28;20402;-83
2022/01/28 10:55:57;;;;;;;7.50;2.03;;;25.00;99.90;;;;;;5075296;28;20374;-83
2022/01/28 10:58:27;;;;;;;6.90;2.00;;;25.00;99.90;;;;;;5074879;28;20370;-90
2022/01/28 11:01:01;;;;;;;7.72;1.83;;;25.00;99.90;;;;;;5075262;28;20409;-82
2022/01/28 11:03:29;;;;;;;9.98;2.10;;;24.90;99.90;;;;;;5074908;28;20374;-84
2022/01/28 11:05:59;;;;;;;6.43;1.97;;;24.80;99.90;;;;;;5075101;28;20402;-86
2022/01/28 11:08:29;;;;;;;7.80;1.93;;;24.80;99.90;;;;;;5075367;28;20370;-78
2022/01/28 11:11:01;;;;;;;8.63;2.10;;;24.80;99.90;;;;;;5074759;28;20377;-81
2022/01/28 11:13:29;;;;;;;8.30;1.80;;;24.70;99.90;;;;;;5075479;28;20362;-87
2022/01/28 11:15:57;;;;;;;8.23;2.05;;;24.70;99.90;;;;;;5075970;28;20402;-80
2022/01/28 11:18:26;;;;;;;9.25;1.90;;;24.70;99.90;;;;;;5073288;28;20390;-79
2022/01/28 11:21:06;;;;;;;8.05;1.83;;;24.70;99.90;;;;;;5074398;28;20374;-85
2022/01/28 11:23:49;;;;;;;9.55;2.00;;;24.70;99.90;;;;;;5074955;28;20365;-81
2022/01/28 11:26:46;;;;;;;9.52;2.03;;;24.60;99.90;;;;;;5056511;28;20731;-83
2022/01/28 11:29:27;;;;;;;7.53;2.13;;;24.50;99.90;;;;;;5036875;28;20420;-91
2022/01/28 11:31:56;;;;;;;8.63;1.75;;;24.60;99.90;;;;;;5074858;28;20803;-81
2022/01/28 11:34:26;;;;;;;10.07;2.20;;;24.50;99.90;;;;;;5074320;28;20376;-89
2022/01/28 11:36:55;;;;;;;9.48;2.22;;;24.40;99.90;;;;;;5073875;28;20370;-82
2022/01/28 11:39:45;;;;;;;10.27;2.17;;;24.30;99.90;;;;;;5074282;28;20378;-82
2022/01/28 11:42:13;;;;;;;8.32;1.90;;;24.30;99.90;;;;;;5073773;28;20393;-80
2022/01/28 11:44:46;;;;;;;8.07;1.90;;;24.20;99.90;;;;;;5073782;28;20398;-84
2022/01/28 11:47:25;;;;;;;7.00;1.90;;;24.30;99.90;;;;;;5056143;28;20785;-84
2022/01/28 11:50:13;;;;;;;10.93;1.95;;;24.30;99.90;;;;;;5074287;28;20449;-84
2022/01/28 11:52:40;;;;;;;8.90;1.95;;;24.30;99.90;;;;;;5074139;28;20850;-82
2022/01/28 11:55:28;;;;;;;9.25;2.00;;;24.30;99.90;;;;;;5074235;28;20419;-82
2022/01/28 11:58:03;;;;;;;9.65;2.05;;;24.20;99.90;;;;;;5073757;28;20841;-84
2022/01/28 12:00:38;;;;;;;7.13;1.80;;;24.20;99.90;;;;;;5073419;28;20967;-83
2022/01/28 12:03:22;;;;;;;7.68;1.80;;;24.20;99.90;;;;;;5073992;28;20366;-88
2022/01/28 12:05:49;;;;;;;7.37;1.70;;;24.10;99.90;;;;;;5073184;28;20485;-88
2022/01/28 12:08:17;;;;;;;7.97;2.10;;;24.10;99.90;;;;;;5073333;28;20377;-83
2022/01/28 12:10:49;;;;;;;7.68;1.90;;;24.10;99.90;;;;;;5073149;28;20385;-86
2022/01/28 12:13:20;;;;;;;8.85;2.22;;;24.10;99.90;;;;;;5073339;28;20390;-85
2022/01/28 12:18:44;;;;;;;9.85;2.13;;;24.00;99.90;;;;;;5073513;28;20454;-84
2022/01/28 12:21:16;;;;;;;8.43;2.10;;;24.00;99.90;;;;;;5073216;28;20370;-83
2022/01/28 12:23:47;;;;;;;8.32;2.15;;;24.00;99.90;;;;;;5073176;28;20469;-88
2022/01/28 12:26:17;;;;;;;10.35;2.10;;;24.00;99.90;;;;;;5073566;28;20436;-81
2022/01/28 12:28:47;;;;;;;8.68;1.90;;;24.10;99.90;;;;;;5072864;28;20715;-83
2022/01/28 12:31:20;;;;;;;9.50;2.00;;;24.20;99.90;;;;;;5073047;28;20373;-82
2022/01/28 12:33:50;;;;;;;7.85;2.10;;;24.20;99.90;;;;;;5073322;28;20373;-87
2022/01/28 12:36:30;;;;;;;9.68;2.08;;;24.20;99.90;;;;;;5072841;28;20393;-83
2022/01/28 12:39:21;;;;;;;11.00;2.38;;;24.30;99.90;;;;;;5072830;28;20746;-82
2022/01/28 12:41:57;;;;;;;8.05;2.10;;;24.30;99.90;;;;;;5072947;28;20468;-84
2022/01/28 12:44:24;;;;;;;10.70;2.10;;;24.40;99.90;;;;;;5073439;28;20376;-84
2022/01/28 12:47:09;;;;;;;9.88;2.30;;;24.30;99.90;;;;;;5072655;28;20405;-83
2022/01/28 12:49:40;;;;;;;10.05;1.92;;;24.30;99.90;;;;;;5072875;28;20858;-85
2022/01/28 12:52:10;;;;;;;13.18;2.30;;;24.20;99.90;;;;;;5073732;28;20840;-83
2022/01/28 12:54:45;;;;;;;10.45;2.20;;;24.10;99.90;;;;;;5073461;28;20447;-87
2022/01/28 12:57:17;;;;;;;12.40;2.50;;;24.00;99.90;;;;;;5074652;28;20461;-85
2022/01/28 12:59:46;;;;;;;9.25;2.30;;;23.90;99.90;;;;;;5083171;28;20397;-80
2022/01/28 13:02:16;;;;;;;12.70;2.60;;;23.80;99.90;;;;;;5076664;28;20453;-84
2022/01/28 13:10:32;;;;;;;14.30;2.70;;;23.60;99.90;;;;;;5072991;28;20372;-77
2022/01/28 13:13:03;;;;;;;10.82;2.60;;;23.60;99.90;;;;;;5072343;28;20363;-83
2022/01/28 13:15:30;;;;;;;9.35;2.25;;;23.60;99.90;;;;;;5072756;28;20370;-87
2022/01/28 13:18:00;;;;;;;13.57;2.63;;;23.50;99.90;;;;;;5072594;28;20378;-81
2022/01/28 13:20:35;;;;;;;9.38;2.30;;;23.50;99.90;;;;;;5072424;28;20456;-83
2022/01/28 13:23:03;;;;;;;9.98;2.50;;;23.40;99.90;;;;;;5072627;28;20849;-81
2022/01/28 13:25:31;;;;;;;9.13;2.20;;;23.30;99.90;;;;;;5072493;28;20528;-88
2022/01/28 13:28:02;;;;;;;10.52;2.40;;;23.30;99.90;;;;;;5072424;28;20374;-88
2022/01/28 13:30:34;;;;;;;12.32;2.50;;;23.30;99.90;;;;;;5072240;28;20370;-80
2022/01/28 13:33:07;;;;;;;9.63;2.20;;;23.30;99.90;;;;;;5072457;28;20373;-80
2022/01/28 13:35:37;;;;;;;10.70;2.60;;;23.30;99.90;;;;;;5072510;28;20462;-81
2022/01/28 13:38:15;;;;;;;13.38;2.55;;;23.20;99.90;;;;;;5072385;28;20780;-82
2022/01/28 13:40:42;;;;;;;11.07;2.60;;;23.20;99.90;;;;;;5072948;28;20378;-85
2022/01/28 13:43:20;;;;;;;10.43;2.50;;;23.20;99.90;;;;;;5076826;28;20358;-85
2022/01/28 13:45:59;;;;;;;11.68;2.53;;;23.20;99.90;;;;;;5076906;28;20432;-82
2022/01/28 13:48:39;;;;;;;11.32;2.25;;;23.20;99.90;;;;;;5076293;28;20374;-82
2022/01/28 13:51:16;;;;;;;13.23;2.60;;;23.10;99.90;;;;;;5076231;28;20396;-83
2022/01/28 13:56:34;;;;;;;8.70;2.25;;;23.10;99.90;;;;;;5076499;28;20378;-82
2022/01/28 13:59:08;;;;;;;13.18;2.38;;;23.00;99.90;;;;;;5076730;28;20370;-86
2022/01/28 14:01:36;;;;;;;8.63;2.20;;;23.00;99.90;;;;;;5079058;28;20377;-82
2022/01/28 14:04:04;;;;;;;9.80;2.37;;;23.00;99.90;;;;;;5080835;28;20409;-82
2022/01/28 14:06:33;;;;;;;11.55;2.45;;;23.00;99.90;;;;;;5076904;28;20390;-89
2022/01/28 14:09:10;;;;;;;12.40;2.60;;;22.90;99.90;;;;;;5076033;28;20381;-84
2022/01/28 14:11:44;;;;;;;11.80;2.80;;;22.90;99.90;;;;;;5075656;28;20788;-85
2022/01/28 14:17:04;;;;;;;10.43;2.40;;;22.90;99.90;;;;;;5075811;28;20362;-88
2022/01/28 14:19:36;;;;;;;13.07;2.55;;;22.80;99.90;;;;;;5076457;28;20753;-82
2022/01/28 14:22:06;;;;;;;10.52;2.42;;;22.80;99.90;;;;;;5075612;28;20477;-82
2022/01/28 14:24:36;;;;;;;12.50;2.88;;;22.80;99.90;;;;;;5075248;28;20370;-81
2022/01/28 14:32:20;;;;;;;11.32;2.50;;;22.60;99.90;;;;;;5075521;28;20362;-80
2022/01/28 14:34:49;;;;;;;14.43;2.83;;;22.60;99.90;;;;;;5075992;28;20374;-85
2022/01/28 14:37:16;;;;;;;11.75;2.65;;;22.60;99.90;;;;;;5077384;28;20467;-79
2022/01/28 14:39:44;;;;;;;12.00;2.85;;;22.60;99.90;;;;;;5078073;28;20366;-79
2022/01/28 14:42:13;;;;;;;13.00;2.53;;;22.50;99.90;;;;;;5077341;28;20393;-79
2022/01/28 14:44:46;;;;;;;10.80;2.70;;;22.50;99.90;;;;;;5075708;28;20393;-80
2022/01/28 14:47:13;;;;;;;12.15;2.78;;;22.50;99.90;;;;;;5076469;28;20432;-81